sensor_id;sensor_type;location;lat;lon;timestamp;P1;durP1;ratioP1;P2;durP2;ratioP2
1775;SDS011;885;42.626;23.200;2023-06-22T00:00:46;12.33;;;7.43;;
1775;SDS011;885;42.626;23.200;2023-06-22T00:03:13;8.10;;;7.30;;
1775;SDS011;885;42.626;23.200;2023-06-22T00:05:40;7.70;;;6.93;;
1775;SDS011;885;42.626;23.200;2023-06-22T00:08:06;8.37;;;7.47;;
1775;SDS011;885;42.626;23.200;2023-06-22T00:10:33;7.53;;;6.43;;
1775;SDS011;885;42.626;23.200;2023-06-22T00:13:00;8.60;;;7.70;;
1775;SDS011;885;42.626;23.200;2023-06-22T00:15:27;8.90;;;6.73;;
1775;SDS011;885;42.626;23.200;2023-06-22T00:17:55;8.37;;;7.57;;
1775;SDS011;885;42.626;23.200;2023-06-22T00:20:24;8.30;;;7.43;;
1775;SDS011;885;42.626;23.200;2023-06-22T00:22:53;8.63;;;7.73;;
1775;SDS011;885;42.626;23.200;2023-06-22T00:25:20;8.13;;;7.43;;
1775;SDS011;885;42.626;23.200;2023-06-22T00:27:47;7.20;;;6.60;;
1775;SDS011;885;42.626;23.200;2023-06-22T00:30:14;11.33;;;7.90;;
1775;SDS011;885;42.626;23.200;2023-06-22T00:32:42;8.13;;;7.30;;
1775;SDS011;885;42.626;23.200;2023-06-22T00:35:10;7.30;;;6.60;;
1775;SDS011;885;42.626;23.200;2023-06-22T00:37:37;8.00;;;7.20;;
1775;SDS011;885;42.626;23.200;2023-06-22T00:40:07;8.90;;;8.00;;
1775;SDS011;885;42.626;23.200;2023-06-22T00:42:37;8.20;;;7.50;;
1775;SDS011;885;42.626;23.200;2023-06-22T00:45:04;8.60;;;7.50;;
1775;SDS011;885;42.626;23.200;2023-06-22T00:47:32;9.60;;;8.53;;
1775;SDS011;885;42.626;23.200;2023-06-22T00:50:00;8.07;;;7.30;;
1775;SDS011;885;42.626;23.200;2023-06-22T00:52:29;10.80;;;7.40;;
1775;SDS011;885;42.626;23.200;2023-06-22T00:54:58;8.70;;;7.80;;
1775;SDS011;885;42.626;23.200;2023-06-22T00:57:26;8.07;;;7.37;;
1775;SDS011;885;42.626;23.200;2023-06-22T00:59:53;7.60;;;6.80;;
1775;SDS011;885;42.626;23.200;2023-06-22T01:02:21;8.20;;;7.40;;
1775;SDS011;885;42.626;23.200;2023-06-22T01:04:47;8.70;;;7.70;;
1775;SDS011;885;42.626;23.200;2023-06-22T01:07:16;8.00;;;7.27;;
1775;SDS011;885;42.626;23.200;2023-06-22T01:09:51;9.60;;;7.03;;
1775;SDS011;885;42.626;23.200;2023-06-22T01:12:25;8.83;;;7.53;;
1775;SDS011;885;42.626;23.200;2023-06-22T01:15:00;8.07;;;7.27;;
1775;SDS011;885;42.626;23.200;2023-06-22T01:17:31;7.40;;;6.60;;
1775;SDS011;885;42.626;23.200;2023-06-22T01:19:59;12.43;;;7.30;;
1775;SDS011;885;42.626;23.200;2023-06-22T01:22:30;9.20;;;7.67;;
1775;SDS011;885;42.626;23.200;2023-06-22T01:25:09;9.50;;;8.33;;
1775;SDS011;885;42.626;23.200;2023-06-22T01:27:39;10.17;;;7.60;;
1775;SDS011;885;42.626;23.200;2023-06-22T01:30:15;9.20;;;7.37;;
1775;SDS011;885;42.626;23.200;2023-06-22T01:32:45;9.20;;;7.40;;
1775;SDS011;885;42.626;23.200;2023-06-22T01:35:14;9.10;;;8.30;;
1775;SDS011;885;42.626;23.200;2023-06-22T01:37:42;7.90;;;7.10;;
1775;SDS011;885;42.626;23.200;2023-06-22T01:40:09;8.60;;;6.70;;
1775;SDS011;885;42.626;23.200;2023-06-22T01:42:36;8.20;;;7.40;;
1775;SDS011;885;42.626;23.200;2023-06-22T01:45:05;8.80;;;7.90;;
1775;SDS011;885;42.626;23.200;2023-06-22T01:47:35;8.80;;;8.07;;
1775;SDS011;885;42.626;23.200;2023-06-22T01:50:02;8.93;;;8.03;;
1775;SDS011;885;42.626;23.200;2023-06-22T01:52:29;9.33;;;8.33;;
1775;SDS011;885;42.626;23.200;2023-06-22T01:54:55;11.70;;;8.80;;
1775;SDS011;885;42.626;23.200;2023-06-22T01:57:23;9.70;;;8.80;;
1775;SDS011;885;42.626;23.200;2023-06-22T01:59:52;9.23;;;8.33;;
1775;SDS011;885;42.626;23.200;2023-06-22T02:02:25;9.90;;;8.30;;
1775;SDS011;885;42.626;23.200;2023-06-22T02:05:00;10.17;;;9.10;;
1775;SDS011;885;42.626;23.200;2023-06-22T02:07:32;9.60;;;8.17;;
1775;SDS011;885;42.626;23.200;2023-06-22T02:10:02;9.40;;;8.30;;
1775;SDS011;885;42.626;23.200;2023-06-22T02:12:32;10.97;;;8.07;;
1775;SDS011;885;42.626;23.200;2023-06-22T02:15:00;9.67;;;8.60;;
1775;SDS011;885;42.626;23.200;2023-06-22T02:17:28;11.87;;;8.10;;
1775;SDS011;885;42.626;23.200;2023-06-22T02:19:59;9.30;;;8.37;;
1775;SDS011;885;42.626;23.200;2023-06-22T02:22:29;10.53;;;9.40;;
1775;SDS011;885;42.626;23.200;2023-06-22T02:24:56;10.20;;;9.30;;
1775;SDS011;885;42.626;23.200;2023-06-22T02:27:23;9.50;;;8.50;;
1775;SDS011;885;42.626;23.200;2023-06-22T02:29:50;9.83;;;8.47;;
1775;SDS011;885;42.626;23.200;2023-06-22T02:32:17;8.63;;;7.73;;
1775;SDS011;885;42.626;23.200;2023-06-22T02:34:43;10.53;;;9.50;;
1775;SDS011;885;42.626;23.200;2023-06-22T02:37:14;11.20;;;9.10;;
1775;SDS011;885;42.626;23.200;2023-06-22T02:39:41;9.40;;;8.50;;
1775;SDS011;885;42.626;23.200;2023-06-22T02:42:08;10.70;;;9.60;;
1775;SDS011;885;42.626;23.200;2023-06-22T02:44:35;10.10;;;9.10;;
1775;SDS011;885;42.626;23.200;2023-06-22T02:47:02;9.60;;;8.70;;
1775;SDS011;885;42.626;23.200;2023-06-22T02:49:29;11.50;;;10.40;;
1775;SDS011;885;42.626;23.200;2023-06-22T02:51:57;10.97;;;9.67;;
1775;SDS011;885;42.626;23.200;2023-06-22T02:54:25;9.57;;;8.70;;
1775;SDS011;885;42.626;23.200;2023-06-22T02:56:52;10.10;;;9.20;;
1775;SDS011;885;42.626;23.200;2023-06-22T02:59:19;10.47;;;9.47;;
1775;SDS011;885;42.626;23.200;2023-06-22T03:01:48;10.10;;;9.10;;
1775;SDS011;885;42.626;23.200;2023-06-22T03:04:15;11.70;;;9.80;;
1775;SDS011;885;42.626;23.200;2023-06-22T03:06:42;11.27;;;9.57;;
1775;SDS011;885;42.626;23.200;2023-06-22T03:09:09;11.20;;;9.63;;
1775;SDS011;885;42.626;23.200;2023-06-22T03:11:37;10.50;;;9.40;;
1775;SDS011;885;42.626;23.200;2023-06-22T03:14:04;10.60;;;9.50;;
1775;SDS011;885;42.626;23.200;2023-06-22T03:16:30;10.10;;;9.10;;
1775;SDS011;885;42.626;23.200;2023-06-22T03:18:58;11.10;;;10.00;;
1775;SDS011;885;42.626;23.200;2023-06-22T03:21:27;10.47;;;9.47;;
1775;SDS011;885;42.626;23.200;2023-06-22T03:23:54;10.97;;;9.60;;
1775;SDS011;885;42.626;23.200;2023-06-22T03:26:21;10.20;;;9.20;;
1775;SDS011;885;42.626;23.200;2023-06-22T03:28:53;12.50;;;9.53;;
1775;SDS011;885;42.626;23.200;2023-06-22T03:31:19;13.70;;;10.60;;
1775;SDS011;885;42.626;23.200;2023-06-22T03:33:46;10.70;;;9.60;;
1775;SDS011;885;42.626;23.200;2023-06-22T03:36:14;11.70;;;10.70;;
1775;SDS011;885;42.626;23.200;2023-06-22T03:38:43;11.40;;;10.40;;
1775;SDS011;885;42.626;23.200;2023-06-22T03:41:10;10.70;;;9.63;;
1775;SDS011;885;42.626;23.200;2023-06-22T03:43:37;11.37;;;10.17;;
1775;SDS011;885;42.626;23.200;2023-06-22T03:46:05;10.43;;;9.53;;
1775;SDS011;885;42.626;23.200;2023-06-22T03:48:32;11.13;;;9.07;;
1775;SDS011;885;42.626;23.200;2023-06-22T03:50:59;11.93;;;10.70;;
1775;SDS011;885;42.626;23.200;2023-06-22T03:53:26;12.43;;;10.60;;
1775;SDS011;885;42.626;23.200;2023-06-22T03:55:53;13.00;;;11.70;;
1775;SDS011;885;42.626;23.200;2023-06-22T03:58:20;11.43;;;10.33;;
1775;SDS011;885;42.626;23.200;2023-06-22T04:00:47;11.33;;;10.30;;
1775;SDS011;885;42.626;23.200;2023-06-22T04:03:15;12.30;;;10.87;;
1775;SDS011;885;42.626;23.200;2023-06-22T04:05:43;11.87;;;10.70;;
1775;SDS011;885;42.626;23.200;2023-06-22T04:08:11;12.67;;;11.47;;
1775;SDS011;885;42.626;23.200;2023-06-22T04:10:38;13.27;;;10.83;;
1775;SDS011;885;42.626;23.200;2023-06-22T04:13:06;11.80;;;10.60;;
1775;SDS011;885;42.626;23.200;2023-06-22T04:15:33;13.37;;;11.30;;
1775;SDS011;885;42.626;23.200;2023-06-22T04:18:00;13.20;;;11.80;;
1775;SDS011;885;42.626;23.200;2023-06-22T04:20:28;14.20;;;12.10;;
1775;SDS011;885;42.626;23.200;2023-06-22T04:22:56;16.07;;;10.70;;
1775;SDS011;885;42.626;23.200;2023-06-22T04:25:23;11.53;;;10.27;;
1775;SDS011;885;42.626;23.200;2023-06-22T04:27:49;11.40;;;10.30;;
1775;SDS011;885;42.626;23.200;2023-06-22T04:30:16;13.33;;;10.50;;
1775;SDS011;885;42.626;23.200;2023-06-22T04:32:43;12.60;;;11.30;;
1775;SDS011;885;42.626;23.200;2023-06-22T04:35:10;11.80;;;10.70;;
1775;SDS011;885;42.626;23.200;2023-06-22T04:37:38;13.40;;;12.10;;
1775;SDS011;885;42.626;23.200;2023-06-22T04:40:06;12.47;;;11.27;;
1775;SDS011;885;42.626;23.200;2023-06-22T04:42:34;12.13;;;11.03;;
1775;SDS011;885;42.626;23.200;2023-06-22T04:45:02;19.30;;;11.50;;
1775;SDS011;885;42.626;23.200;2023-06-22T04:47:29;12.20;;;11.00;;
1775;SDS011;885;42.626;23.200;2023-06-22T04:49:56;11.13;;;10.03;;
1775;SDS011;885;42.626;23.200;2023-06-22T04:52:23;11.03;;;9.93;;
1775;SDS011;885;42.626;23.200;2023-06-22T04:54:51;11.33;;;9.93;;
1775;SDS011;885;42.626;23.200;2023-06-22T04:57:20;10.97;;;9.87;;
1775;SDS011;885;42.626;23.200;2023-06-22T04:59:57;10.77;;;9.77;;
1775;SDS011;885;42.626;23.200;2023-06-22T05:02:36;9.47;;;8.53;;
1775;SDS011;885;42.626;23.200;2023-06-22T05:05:03;10.87;;;9.80;;
1775;SDS011;885;42.626;23.200;2023-06-22T05:07:32;10.37;;;9.47;;
1775;SDS011;885;42.626;23.200;2023-06-22T05:10:00;9.50;;;8.70;;
1775;SDS011;885;42.626;23.200;2023-06-22T05:12:27;10.20;;;9.30;;
1775;SDS011;885;42.626;23.200;2023-06-22T05:14:54;11.33;;;10.30;;
1775;SDS011;885;42.626;23.200;2023-06-22T05:17:21;10.73;;;9.63;;
1775;SDS011;885;42.626;23.200;2023-06-22T05:19:48;9.60;;;8.70;;
1775;SDS011;885;42.626;23.200;2023-06-22T05:22:17;10.63;;;9.63;;
1775;SDS011;885;42.626;23.200;2023-06-22T05:24:43;11.10;;;10.00;;
1775;SDS011;885;42.626;23.200;2023-06-22T05:27:12;9.33;;;8.40;;
1775;SDS011;885;42.626;23.200;2023-06-22T05:29:39;12.90;;;9.30;;
1775;SDS011;885;42.626;23.200;2023-06-22T05:32:06;9.67;;;8.83;;
1775;SDS011;885;42.626;23.200;2023-06-22T05:34:33;12.67;;;9.60;;
1775;SDS011;885;42.626;23.200;2023-06-22T05:37:00;10.50;;;9.40;;
1775;SDS011;885;42.626;23.200;2023-06-22T05:39:26;9.77;;;8.87;;
1775;SDS011;885;42.626;23.200;2023-06-22T05:41:53;11.83;;;10.73;;
1775;SDS011;885;42.626;23.200;2023-06-22T05:44:21;9.70;;;8.80;;
1775;SDS011;885;42.626;23.200;2023-06-22T05:46:48;11.07;;;9.97;;
1775;SDS011;885;42.626;23.200;2023-06-22T05:49:15;10.80;;;9.70;;
1775;SDS011;885;42.626;23.200;2023-06-22T05:51:42;9.73;;;8.83;;
1775;SDS011;885;42.626;23.200;2023-06-22T05:54:09;10.77;;;9.77;;
1775;SDS011;885;42.626;23.200;2023-06-22T05:56:38;10.30;;;9.27;;
1775;SDS011;885;42.626;23.200;2023-06-22T05:59:05;10.97;;;9.97;;
1775;SDS011;885;42.626;23.200;2023-06-22T06:01:33;11.50;;;10.10;;
1775;SDS011;885;42.626;23.200;2023-06-22T06:04:01;11.73;;;10.67;;
1775;SDS011;885;42.626;23.200;2023-06-22T06:06:29;11.30;;;10.13;;
1775;SDS011;885;42.626;23.200;2023-06-22T06:08:57;10.40;;;9.50;;
1775;SDS011;885;42.626;23.200;2023-06-22T06:11:24;11.17;;;8.90;;
1775;SDS011;885;42.626;23.200;2023-06-22T06:13:51;10.40;;;9.40;;
1775;SDS011;885;42.626;23.200;2023-06-22T06:16:18;10.17;;;9.27;;
1775;SDS011;885;42.626;23.200;2023-06-22T06:18:46;10.50;;;9.47;;
1775;SDS011;885;42.626;23.200;2023-06-22T06:21:14;10.70;;;9.63;;
1775;SDS011;885;42.626;23.200;2023-06-22T06:23:41;11.23;;;10.33;;
1775;SDS011;885;42.626;23.200;2023-06-22T06:26:08;10.30;;;9.30;;
1775;SDS011;885;42.626;23.200;2023-06-22T06:28:35;10.33;;;9.33;;
1775;SDS011;885;42.626;23.200;2023-06-22T06:31:02;11.93;;;10.83;;
1775;SDS011;885;42.626;23.200;2023-06-22T06:33:32;9.47;;;8.57;;
1775;SDS011;885;42.626;23.200;2023-06-22T06:36:00;10.60;;;9.60;;
1775;SDS011;885;42.626;23.200;2023-06-22T06:38:28;10.47;;;9.17;;
1775;SDS011;885;42.626;23.200;2023-06-22T06:40:55;9.60;;;8.80;;
1775;SDS011;885;42.626;23.200;2023-06-22T06:43:22;10.53;;;9.20;;
1775;SDS011;885;42.626;23.200;2023-06-22T06:45:49;9.97;;;8.97;;
1775;SDS011;885;42.626;23.200;2023-06-22T06:48:16;9.37;;;8.50;;
1775;SDS011;885;42.626;23.200;2023-06-22T06:50:43;10.30;;;9.30;;
1775;SDS011;885;42.626;23.200;2023-06-22T06:53:11;9.73;;;8.93;;
1775;SDS011;885;42.626;23.200;2023-06-22T06:55:38;10.70;;;9.60;;
1775;SDS011;885;42.626;23.200;2023-06-22T06:58:05;9.30;;;8.60;;
1775;SDS011;885;42.626;23.200;2023-06-22T07:00:37;9.70;;;8.80;;
1775;SDS011;885;42.626;23.200;2023-06-22T07:03:04;10.10;;;9.17;;
1775;SDS011;885;42.626;23.200;2023-06-22T07:05:32;11.00;;;10.00;;
1775;SDS011;885;42.626;23.200;2023-06-22T07:07:59;10.77;;;9.77;;
1775;SDS011;885;42.626;23.200;2023-06-22T07:10:29;10.20;;;9.20;;
1775;SDS011;885;42.626;23.200;2023-06-22T07:12:56;11.93;;;10.73;;
1775;SDS011;885;42.626;23.200;2023-06-22T07:15:23;10.33;;;9.53;;
1775;SDS011;885;42.626;23.200;2023-06-22T07:17:50;10.93;;;9.93;;
1775;SDS011;885;42.626;23.200;2023-06-22T07:20:16;10.90;;;9.90;;
1775;SDS011;885;42.626;23.200;2023-06-22T07:22:45;11.67;;;10.60;;
1775;SDS011;885;42.626;23.200;2023-06-22T07:25:13;11.13;;;10.10;;
1775;SDS011;885;42.626;23.200;2023-06-22T07:27:44;11.33;;;10.30;;
1775;SDS011;885;42.626;23.200;2023-06-22T07:30:13;10.43;;;9.40;;
1775;SDS011;885;42.626;23.200;2023-06-22T07:32:40;11.20;;;10.03;;
1775;SDS011;885;42.626;23.200;2023-06-22T07:35:07;10.80;;;9.90;;
1775;SDS011;885;42.626;23.200;2023-06-22T07:37:35;13.03;;;10.50;;
1775;SDS011;885;42.626;23.200;2023-06-22T07:40:05;12.10;;;10.90;;
1775;SDS011;885;42.626;23.200;2023-06-22T07:42:33;10.83;;;9.93;;
1775;SDS011;885;42.626;23.200;2023-06-22T07:45:01;11.30;;;10.20;;
1775;SDS011;885;42.626;23.200;2023-06-22T07:47:29;10.77;;;9.60;;
1775;SDS011;885;42.626;23.200;2023-06-22T07:49:59;10.03;;;9.13;;
1775;SDS011;885;42.626;23.200;2023-06-22T07:52:26;11.77;;;10.43;;
1775;SDS011;885;42.626;23.200;2023-06-22T07:54:54;11.00;;;10.00;;
1775;SDS011;885;42.626;23.200;2023-06-22T07:57:21;11.83;;;10.73;;
1775;SDS011;885;42.626;23.200;2023-06-22T07:59:47;10.90;;;9.87;;
1775;SDS011;885;42.626;23.200;2023-06-22T08:02:15;11.40;;;10.40;;
1775;SDS011;885;42.626;23.200;2023-06-22T08:04:43;12.13;;;10.93;;
1775;SDS011;885;42.626;23.200;2023-06-22T08:07:09;12.40;;;11.33;;
1775;SDS011;885;42.626;23.200;2023-06-22T08:09:36;12.47;;;11.27;;
1775;SDS011;885;42.626;23.200;2023-06-22T08:12:03;11.97;;;11.03;;
1775;SDS011;885;42.626;23.200;2023-06-22T08:14:31;12.43;;;11.43;;
1775;SDS011;885;42.626;23.200;2023-06-22T08:16:57;12.73;;;11.60;;
1775;SDS011;885;42.626;23.200;2023-06-22T08:19:25;13.30;;;12.30;;
1775;SDS011;885;42.626;23.200;2023-06-22T08:21:52;12.80;;;11.70;;
1775;SDS011;885;42.626;23.200;2023-06-22T08:24:19;12.90;;;11.80;;
1775;SDS011;885;42.626;23.200;2023-06-22T08:26:45;13.80;;;12.60;;
1775;SDS011;885;42.626;23.200;2023-06-22T08:29:12;12.50;;;11.40;;
1775;SDS011;885;42.626;23.200;2023-06-22T08:31:39;12.33;;;11.27;;
1775;SDS011;885;42.626;23.200;2023-06-22T08:34:06;12.90;;;11.70;;
1775;SDS011;885;42.626;23.200;2023-06-22T08:36:34;13.03;;;11.83;;
1775;SDS011;885;42.626;23.200;2023-06-22T08:39:02;12.57;;;11.27;;
1775;SDS011;885;42.626;23.200;2023-06-22T08:41:29;9.70;;;8.80;;
1775;SDS011;885;42.626;23.200;2023-06-22T08:43:56;12.27;;;9.60;;
1775;SDS011;885;42.626;23.200;2023-06-22T08:46:23;11.30;;;10.30;;
1775;SDS011;885;42.626;23.200;2023-06-22T08:48:55;12.57;;;9.90;;
1775;SDS011;885;42.626;23.200;2023-06-22T08:51:23;10.40;;;9.50;;
1775;SDS011;885;42.626;23.200;2023-06-22T08:53:51;9.83;;;8.93;;
1775;SDS011;885;42.626;23.200;2023-06-22T08:56:18;10.07;;;9.07;;
1775;SDS011;885;42.626;23.200;2023-06-22T08:58:45;10.53;;;9.43;;
1775;SDS011;885;42.626;23.200;2023-06-22T09:01:12;11.20;;;10.10;;
1775;SDS011;885;42.626;23.200;2023-06-22T09:03:40;11.77;;;10.67;;
1775;SDS011;885;42.626;23.200;2023-06-22T09:06:07;10.00;;;9.20;;
1775;SDS011;885;42.626;23.200;2023-06-22T09:08:34;10.73;;;9.67;;
1775;SDS011;885;42.626;23.200;2023-06-22T09:11:02;11.73;;;10.63;;
1775;SDS011;885;42.626;23.200;2023-06-22T09:13:30;11.03;;;9.80;;
1775;SDS011;885;42.626;23.200;2023-06-22T09:15:57;11.70;;;10.70;;
1775;SDS011;885;42.626;23.200;2023-06-22T09:18:24;11.07;;;9.83;;
1775;SDS011;885;42.626;23.200;2023-06-22T09:20:51;12.03;;;10.83;;
1775;SDS011;885;42.626;23.200;2023-06-22T09:23:18;11.53;;;10.53;;
1775;SDS011;885;42.626;23.200;2023-06-22T09:25:45;10.80;;;9.90;;
1775;SDS011;885;42.626;23.200;2023-06-22T09:28:14;11.10;;;10.20;;
1775;SDS011;885;42.626;23.200;2023-06-22T09:30:42;9.93;;;9.13;;
1775;SDS011;885;42.626;23.200;2023-06-22T09:33:09;12.10;;;9.93;;
1775;SDS011;885;42.626;23.200;2023-06-22T09:35:36;11.17;;;10.07;;
1775;SDS011;885;42.626;23.200;2023-06-22T09:38:02;10.70;;;9.70;;
1775;SDS011;885;42.626;23.200;2023-06-22T09:40:29;10.40;;;9.57;;
1775;SDS011;885;42.626;23.200;2023-06-22T09:42:57;11.13;;;10.00;;
1775;SDS011;885;42.626;23.200;2023-06-22T09:45:25;11.20;;;10.20;;
1775;SDS011;885;42.626;23.200;2023-06-22T09:47:52;10.87;;;10.00;;
1775;SDS011;885;42.626;23.200;2023-06-22T09:50:19;10.47;;;9.57;;
1775;SDS011;885;42.626;23.200;2023-06-22T09:52:46;10.80;;;9.80;;
1775;SDS011;885;42.626;23.200;2023-06-22T09:55:15;11.70;;;10.50;;
1775;SDS011;885;42.626;23.200;2023-06-22T09:57:42;11.73;;;10.53;;
1775;SDS011;885;42.626;23.200;2023-06-22T10:00:09;11.20;;;10.10;;
1775;SDS011;885;42.626;23.200;2023-06-22T10:02:39;10.37;;;9.37;;
1775;SDS011;885;42.626;23.200;2023-06-22T10:05:07;11.07;;;9.97;;
1775;SDS011;885;42.626;23.200;2023-06-22T10:07:34;10.87;;;9.80;;
1775;SDS011;885;42.626;23.200;2023-06-22T10:10:05;10.20;;;9.40;;
1775;SDS011;885;42.626;23.200;2023-06-22T10:12:32;10.43;;;9.53;;
1775;SDS011;885;42.626;23.200;2023-06-22T10:14:59;10.20;;;9.33;;
1775;SDS011;885;42.626;23.200;2023-06-22T10:17:26;8.90;;;8.10;;
1775;SDS011;885;42.626;23.200;2023-06-22T10:19:54;10.30;;;9.17;;
1775;SDS011;885;42.626;23.200;2023-06-22T10:22:21;10.63;;;9.70;;
1775;SDS011;885;42.626;23.200;2023-06-22T10:24:47;10.03;;;9.10;;
1775;SDS011;885;42.626;23.200;2023-06-22T10:27:14;11.70;;;10.60;;
1775;SDS011;885;42.626;23.200;2023-06-22T10:29:41;11.30;;;10.20;;
1775;SDS011;885;42.626;23.200;2023-06-22T10:32:08;10.77;;;9.73;;
1775;SDS011;885;42.626;23.200;2023-06-22T10:34:35;9.93;;;8.20;;
1775;SDS011;885;42.626;23.200;2023-06-22T10:37:03;10.40;;;9.43;;
1775;SDS011;885;42.626;23.200;2023-06-22T10:39:30;10.00;;;9.10;;
1775;SDS011;885;42.626;23.200;2023-06-22T10:41:57;10.60;;;9.70;;
1775;SDS011;885;42.626;23.200;2023-06-22T10:44:23;10.47;;;9.63;;
1775;SDS011;885;42.626;23.200;2023-06-22T10:46:50;11.03;;;10.13;;
1775;SDS011;885;42.626;23.200;2023-06-22T10:49:17;10.53;;;9.63;;
1775;SDS011;885;42.626;23.200;2023-06-22T10:51:44;10.87;;;9.87;;
1775;SDS011;885;42.626;23.200;2023-06-22T10:54:12;10.70;;;9.80;;
1775;SDS011;885;42.626;23.200;2023-06-22T10:56:39;10.63;;;9.73;;
1775;SDS011;885;42.626;23.200;2023-06-22T10:59:06;9.87;;;9.07;;
1775;SDS011;885;42.626;23.200;2023-06-22T11:01:33;9.43;;;8.63;;
1775;SDS011;885;42.626;23.200;2023-06-22T11:03:59;11.03;;;9.93;;
1775;SDS011;885;42.626;23.200;2023-06-22T11:06:26;9.30;;;8.57;;
1775;SDS011;885;42.626;23.200;2023-06-22T11:08:53;10.07;;;9.27;;
1775;SDS011;885;42.626;23.200;2023-06-22T11:11:21;12.40;;;9.97;;
1775;SDS011;885;42.626;23.200;2023-06-22T11:13:48;10.23;;;9.33;;
1775;SDS011;885;42.626;23.200;2023-06-22T11:16:14;9.80;;;8.80;;
1775;SDS011;885;42.626;23.200;2023-06-22T11:18:41;9.47;;;8.33;;
1775;SDS011;885;42.626;23.200;2023-06-22T11:21:08;10.80;;;9.50;;
1775;SDS011;885;42.626;23.200;2023-06-22T11:23:35;10.47;;;9.57;;
1775;SDS011;885;42.626;23.200;2023-06-22T11:26:01;10.37;;;9.47;;
1775;SDS011;885;42.626;23.200;2023-06-22T11:28:29;11.43;;;8.93;;
1775;SDS011;885;42.626;23.200;2023-06-22T11:30:56;9.97;;;9.13;;
1775;SDS011;885;42.626;23.200;2023-06-22T11:33:23;9.90;;;9.10;;
1775;SDS011;885;42.626;23.200;2023-06-22T11:35:49;10.80;;;9.87;;
1775;SDS011;885;42.626;23.200;2023-06-22T11:38:16;10.87;;;9.97;;
1775;SDS011;885;42.626;23.200;2023-06-22T11:40:43;11.67;;;10.57;;
1775;SDS011;885;42.626;23.200;2023-06-22T11:43:10;10.33;;;9.43;;
1775;SDS011;885;42.626;23.200;2023-06-22T11:45:38;10.10;;;9.30;;
1775;SDS011;885;42.626;23.200;2023-06-22T11:48:05;10.83;;;9.93;;
1775;SDS011;885;42.626;23.200;2023-06-22T11:50:32;10.93;;;10.03;;
1775;SDS011;885;42.626;23.200;2023-06-22T11:53:01;11.40;;;10.40;;
1775;SDS011;885;42.626;23.200;2023-06-22T11:55:28;10.50;;;9.60;;
1775;SDS011;885;42.626;23.200;2023-06-22T11:57:55;10.03;;;9.00;;
1775;SDS011;885;42.626;23.200;2023-06-22T12:00:25;10.53;;;9.63;;
1775;SDS011;885;42.626;23.200;2023-06-22T12:02:53;10.60;;;9.63;;
1775;SDS011;885;42.626;23.200;2023-06-22T12:05:20;9.77;;;8.87;;
1775;SDS011;885;42.626;23.200;2023-06-22T12:07:48;11.23;;;10.20;;
1775;SDS011;885;42.626;23.200;2023-06-22T12:10:15;10.53;;;9.30;;
1775;SDS011;885;42.626;23.200;2023-06-22T12:12:41;10.67;;;9.57;;
1775;SDS011;885;42.626;23.200;2023-06-22T12:15:09;10.07;;;9.27;;
1775;SDS011;885;42.626;23.200;2023-06-22T12:17:36;10.53;;;9.73;;
1775;SDS011;885;42.626;23.200;2023-06-22T12:20:05;10.80;;;9.90;;
1775;SDS011;885;42.626;23.200;2023-06-22T12:22:33;10.10;;;9.13;;
1775;SDS011;885;42.626;23.200;2023-06-22T12:25:00;10.20;;;9.40;;
1775;SDS011;885;42.626;23.200;2023-06-22T12:27:27;10.60;;;9.60;;
1775;SDS011;885;42.626;23.200;2023-06-22T12:29:55;10.77;;;9.77;;
1775;SDS011;885;42.626;23.200;2023-06-22T12:32:22;11.50;;;10.60;;
1775;SDS011;885;42.626;23.200;2023-06-22T12:34:49;11.47;;;10.50;;
1775;SDS011;885;42.626;23.200;2023-06-22T12:37:17;11.73;;;10.53;;
1775;SDS011;885;42.626;23.200;2023-06-22T12:39:44;11.20;;;10.27;;
1775;SDS011;885;42.626;23.200;2023-06-22T12:42:11;11.93;;;10.77;;
1775;SDS011;885;42.626;23.200;2023-06-22T12:44:38;11.23;;;10.17;;
1775;SDS011;885;42.626;23.200;2023-06-22T12:47:05;12.00;;;10.90;;
1775;SDS011;885;42.626;23.200;2023-06-22T12:49:33;11.43;;;10.33;;
1775;SDS011;885;42.626;23.200;2023-06-22T12:52:00;11.10;;;10.03;;
1775;SDS011;885;42.626;23.200;2023-06-22T12:54:28;18.93;;;10.87;;
1775;SDS011;885;42.626;23.200;2023-06-22T12:56:55;15.67;;;11.27;;
1775;SDS011;885;42.626;23.200;2023-06-22T12:59:22;11.30;;;10.30;;
1775;SDS011;885;42.626;23.200;2023-06-22T13:01:49;14.60;;;12.10;;
1775;SDS011;885;42.626;23.200;2023-06-22T13:04:15;14.43;;;12.97;;
1775;SDS011;885;42.626;23.200;2023-06-22T13:06:43;12.33;;;11.10;;
1775;SDS011;885;42.626;23.200;2023-06-22T13:09:12;13.20;;;9.70;;
1775;SDS011;885;42.626;23.200;2023-06-22T13:11:41;11.67;;;10.47;;
1775;SDS011;885;42.626;23.200;2023-06-22T13:14:08;13.97;;;10.70;;
1775;SDS011;885;42.626;23.200;2023-06-22T13:16:35;9.77;;;8.77;;
1775;SDS011;885;42.626;23.200;2023-06-22T13:19:01;10.47;;;9.37;;
1775;SDS011;885;42.626;23.200;2023-06-22T13:34:03;11.33;;;10.13;;
1775;SDS011;885;42.626;23.200;2023-06-22T13:36:29;12.60;;;11.30;;
1775;SDS011;885;42.626;23.200;2023-06-22T13:38:56;11.33;;;10.23;;
1775;SDS011;885;42.626;23.200;2023-06-22T13:41:23;11.20;;;10.10;;
1775;SDS011;885;42.626;23.200;2023-06-22T13:43:50;11.80;;;10.70;;
1775;SDS011;885;42.626;23.200;2023-06-22T13:46:17;13.17;;;10.10;;
1775;SDS011;885;42.626;23.200;2023-06-22T13:48:44;11.10;;;9.70;;
1775;SDS011;885;42.626;23.200;2023-06-22T13:51:12;10.77;;;9.67;;
1775;SDS011;885;42.626;23.200;2023-06-22T13:53:39;11.10;;;9.57;;
1775;SDS011;885;42.626;23.200;2023-06-22T13:56:06;11.87;;;10.70;;
1775;SDS011;885;42.626;23.200;2023-06-22T13:58:32;12.40;;;11.20;;
1775;SDS011;885;42.626;23.200;2023-06-22T14:00:59;11.53;;;10.33;;
1775;SDS011;885;42.626;23.200;2023-06-22T14:03:26;14.10;;;11.27;;
1775;SDS011;885;42.626;23.200;2023-06-22T14:05:52;13.10;;;11.93;;
1775;SDS011;885;42.626;23.200;2023-06-22T14:08:23;11.83;;;10.60;;
1775;SDS011;885;42.626;23.200;2023-06-22T14:10:50;12.07;;;10.83;;
1775;SDS011;885;42.626;23.200;2023-06-22T14:13:18;11.67;;;10.57;;
1775;SDS011;885;42.626;23.200;2023-06-22T14:15:45;12.33;;;11.10;;
1775;SDS011;885;42.626;23.200;2023-06-22T14:18:13;12.47;;;11.17;;
1775;SDS011;885;42.626;23.200;2023-06-22T14:20:40;12.20;;;11.00;;
1775;SDS011;885;42.626;23.200;2023-06-22T14:23:07;12.20;;;10.90;;
1775;SDS011;885;42.626;23.200;2023-06-22T14:25:35;13.90;;;12.50;;
1775;SDS011;885;42.626;23.200;2023-06-22T14:28:02;13.83;;;12.60;;
1775;SDS011;885;42.626;23.200;2023-06-22T14:30:29;12.87;;;11.67;;
1775;SDS011;885;42.626;23.200;2023-06-22T14:32:55;13.40;;;12.17;;
1775;SDS011;885;42.626;23.200;2023-06-22T14:35:22;12.20;;;11.00;;
1775;SDS011;885;42.626;23.200;2023-06-22T14:37:49;12.97;;;11.67;;
1775;SDS011;885;42.626;23.200;2023-06-22T14:40:16;13.20;;;12.00;;
1775;SDS011;885;42.626;23.200;2023-06-22T14:42:44;15.73;;;11.93;;
1775;SDS011;885;42.626;23.200;2023-06-22T14:45:12;12.23;;;11.13;;
1775;SDS011;885;42.626;23.200;2023-06-22T14:47:39;15.90;;;11.00;;
1775;SDS011;885;42.626;23.200;2023-06-22T14:50:06;13.67;;;12.30;;
1775;SDS011;885;42.626;23.200;2023-06-22T14:52:33;14.03;;;12.60;;
1775;SDS011;885;42.626;23.200;2023-06-22T14:55:00;15.57;;;14.00;;
1775;SDS011;885;42.626;23.200;2023-06-22T14:57:27;13.87;;;12.47;;
1775;SDS011;885;42.626;23.200;2023-06-22T14:59:55;15.83;;;14.23;;
1775;SDS011;885;42.626;23.200;2023-06-22T15:02:21;16.33;;;14.73;;
1775;SDS011;885;42.626;23.200;2023-06-22T15:04:48;15.47;;;14.07;;
1775;SDS011;885;42.626;23.200;2023-06-22T15:07:15;16.17;;;14.57;;
1775;SDS011;885;42.626;23.200;2023-06-22T15:09:42;15.73;;;14.30;;
1775;SDS011;885;42.626;23.200;2023-06-22T15:12:10;15.90;;;14.37;;
1775;SDS011;885;42.626;23.200;2023-06-22T15:14:37;16.80;;;15.20;;